Terminal Aerodrome Forecast
Issued by NWS

Home | Current Version | Previous Version | Text Only | Print | Product List | Glossary On
Versions: 1 2 3 4 5 6 7 8 9 10 11 12 13 14 15 16 17 18 19
000
FTUS43 KBIS 221100
TAFJMS
TAF
KJMS 221137Z 2212/2312 31010KT P6SM SCT008
     FM221500 35010KT P6SM SCT250
     FM230300 05005KT P6SM SCT060=

USA.gov is the U.S. government's official web portal to all federal, state and local government web resources and services.